sensor_id;sensor_type;location;lat;lon;timestamp;temperature;humidity
52799;DHT22;38667;42.872;74.622;2023-04-12T00:01:25;9.50;99.90
52799;DHT22;38667;42.872;74.622;2023-04-12T00:03:51;9.40;99.90
52799;DHT22;38667;42.872;74.622;2023-04-12T00:06:17;9.50;99.50
52799;DHT22;38667;42.872;74.622;2023-04-12T00:08:44;9.50;97.60
52799;DHT22;38667;42.872;74.622;2023-04-12T00:11:10;9.50;95.70
52799;DHT22;38667;42.872;74.622;2023-04-12T00:13:36;9.50;95.80
52799;DHT22;38667;42.872;74.622;2023-04-12T00:16:03;9.60;95.60
52799;DHT22;38667;42.872;74.622;2023-04-12T00:18:30;9.60;94.50
52799;DHT22;38667;42.872;74.622;2023-04-12T00:20:57;9.60;94.90
52799;DHT22;38667;42.872;74.622;2023-04-12T00:23:23;9.50;95.20
52799;DHT22;38667;42.872;74.622;2023-04-12T00:25:49;9.50;96.40
52799;DHT22;38667;42.872;74.622;2023-04-12T00:28:16;9.50;97.50
52799;DHT22;38667;42.872;74.622;2023-04-12T00:30:42;9.50;97.30
52799;DHT22;38667;42.872;74.622;2023-04-12T00:33:08;9.50;97.80
52799;DHT22;38667;42.872;74.622;2023-04-12T00:35:36;9.40;98.50
52799;DHT22;38667;42.872;74.622;2023-04-12T00:38:02;9.40;99.60
52799;DHT22;38667;42.872;74.622;2023-04-12T00:40:29;9.40;99.90
52799;DHT22;38667;42.872;74.622;2023-04-12T00:42:55;9.40;99.90
52799;DHT22;38667;42.872;74.622;2023-04-12T00:45:21;9.40;99.90
52799;DHT22;38667;42.872;74.622;2023-04-12T00:47:48;9.30;99.90
52799;DHT22;38667;42.872;74.622;2023-04-12T00:50:14;9.40;99.90
52799;DHT22;38667;42.872;74.622;2023-04-12T00:52:43;9.40;99.90
52799;DHT22;38667;42.872;74.622;2023-04-12T00:55:09;9.40;99.90
52799;DHT22;38667;42.872;74.622;2023-04-12T00:57:37;9.50;99.90
52799;DHT22;38667;42.872;74.622;2023-04-12T01:00:05;9.50;99.90
52799;DHT22;38667;42.872;74.622;2023-04-12T01:02:32;9.50;99.90
52799;DHT22;38667;42.872;74.622;2023-04-12T01:04:59;9.50;99.90
52799;DHT22;38667;42.872;74.622;2023-04-12T01:07:38;9.50;99.80
52799;DHT22;38667;42.872;74.622;2023-04-12T01:10:15;9.60;99.90
52799;DHT22;38667;42.872;74.622;2023-04-12T01:12:48;9.60;99.90
52799;DHT22;38667;42.872;74.622;2023-04-12T01:15:18;9.60;99.90
52799;DHT22;38667;42.872;74.622;2023-04-12T01:17:48;9.70;99.90
52799;DHT22;38667;42.872;74.622;2023-04-12T01:20:20;9.60;99.90
52799;DHT22;38667;42.872;74.622;2023-04-12T01:23:05;9.70;99.90
52799;DHT22;38667;42.872;74.622;2023-04-12T01:25:59;9.70;99.90
52799;DHT22;38667;42.872;74.622;2023-04-12T01:28:34;9.80;99.90
52799;DHT22;38667;42.872;74.622;2023-04-12T01:31:03;9.80;99.90
52799;DHT22;38667;42.872;74.622;2023-04-12T01:33:33;9.90;99.90
52799;DHT22;38667;42.872;74.622;2023-04-12T01:36:07;10.00;98.70
52799;DHT22;38667;42.872;74.622;2023-04-12T01:38:34;10.10;98.20
52799;DHT22;38667;42.872;74.622;2023-04-12T01:41:00;10.10;98.90
52799;DHT22;38667;42.872;74.622;2023-04-12T01:43:27;10.30;99.40
52799;DHT22;38667;42.872;74.622;2023-04-12T01:45:55;10.30;97.60
52799;DHT22;38667;42.872;74.622;2023-04-12T01:48:22;10.40;96.90
52799;DHT22;38667;42.872;74.622;2023-04-12T01:50:54;10.40;96.60
52799;DHT22;38667;42.872;74.622;2023-04-12T01:53:30;10.50;96.50
52799;DHT22;38667;42.872;74.622;2023-04-12T01:55:59;10.60;96.80
52799;DHT22;38667;42.872;74.622;2023-04-12T01:58:27;10.60;96.60
52799;DHT22;38667;42.872;74.622;2023-04-12T02:00:56;10.70;96.70
52799;DHT22;38667;42.872;74.622;2023-04-12T02:03:24;10.70;96.20
52799;DHT22;38667;42.872;74.622;2023-04-12T02:05:52;10.80;96.00
52799;DHT22;38667;42.872;74.622;2023-04-12T02:08:18;10.70;95.00
52799;DHT22;38667;42.872;74.622;2023-04-12T02:10:45;10.80;95.30
52799;DHT22;38667;42.872;74.622;2023-04-12T02:13:11;10.80;95.50
52799;DHT22;38667;42.872;74.622;2023-04-12T02:15:37;10.90;95.50
52799;DHT22;38667;42.872;74.622;2023-04-12T02:18:05;10.90;95.80
52799;DHT22;38667;42.872;74.622;2023-04-12T02:20:31;11.00;95.60
52799;DHT22;38667;42.872;74.622;2023-04-12T02:22:58;11.10;95.30
52799;DHT22;38667;42.872;74.622;2023-04-12T02:25:24;11.10;93.90
52799;DHT22;38667;42.872;74.622;2023-04-12T02:27:50;11.20;93.40
52799;DHT22;38667;42.872;74.622;2023-04-12T02:30:17;11.20;92.40
52799;DHT22;38667;42.872;74.622;2023-04-12T02:32:43;11.30;92.80
52799;DHT22;38667;42.872;74.622;2023-04-12T02:35:13;11.30;91.00
52799;DHT22;38667;42.872;74.622;2023-04-12T02:37:40;11.50;91.10
52799;DHT22;38667;42.872;74.622;2023-04-12T02:40:07;11.60;90.50
52799;DHT22;38667;42.872;74.622;2023-04-12T02:42:34;11.70;88.70
52799;DHT22;38667;42.872;74.622;2023-04-12T02:45:00;11.70;84.80
52799;DHT22;38667;42.872;74.622;2023-04-12T02:47:26;11.70;80.30
52799;DHT22;38667;42.872;74.622;2023-04-12T02:49:53;11.70;79.70
52799;DHT22;38667;42.872;74.622;2023-04-12T02:52:21;11.80;79.40
52799;DHT22;38667;42.872;74.622;2023-04-12T02:54:49;11.80;78.10
52799;DHT22;38667;42.872;74.622;2023-04-12T02:57:16;11.80;80.10
52799;DHT22;38667;42.872;74.622;2023-04-12T02:59:42;11.90;80.70
52799;DHT22;38667;42.872;74.622;2023-04-12T03:02:08;11.90;78.30
52799;DHT22;38667;42.872;74.622;2023-04-12T03:04:35;11.90;75.30
52799;DHT22;38667;42.872;74.622;2023-04-12T03:07:01;12.00;75.50
52799;DHT22;38667;42.872;74.622;2023-04-12T03:09:29;12.00;75.90
52799;DHT22;38667;42.872;74.622;2023-04-12T03:11:55;12.00;74.80
52799;DHT22;38667;42.872;74.622;2023-04-12T03:14:22;12.00;76.30
52799;DHT22;38667;42.872;74.622;2023-04-12T03:16:48;12.00;75.60
52799;DHT22;38667;42.872;74.622;2023-04-12T03:19:14;12.10;75.70
52799;DHT22;38667;42.872;74.622;2023-04-12T03:21:41;12.10;76.60
52799;DHT22;38667;42.872;74.622;2023-04-12T03:24:07;12.10;76.90
52799;DHT22;38667;42.872;74.622;2023-04-12T03:26:35;12.20;76.50
52799;DHT22;38667;42.872;74.622;2023-04-12T03:29:02;12.30;75.60
52799;DHT22;38667;42.872;74.622;2023-04-12T03:31:29;12.30;73.20
52799;DHT22;38667;42.872;74.622;2023-04-12T03:33:55;12.40;73.60
52799;DHT22;38667;42.872;74.622;2023-04-12T03:36:21;12.50;73.60
52799;DHT22;38667;42.872;74.622;2023-04-12T03:38:48;12.60;73.50
52799;DHT22;38667;42.872;74.622;2023-04-12T03:41:15;12.70;73.90
52799;DHT22;38667;42.872;74.622;2023-04-12T03:43:42;12.80;73.30
52799;DHT22;38667;42.872;74.622;2023-04-12T03:46:09;12.90;71.70
52799;DHT22;38667;42.872;74.622;2023-04-12T03:48:35;13.00;72.20
52799;DHT22;38667;42.872;74.622;2023-04-12T03:51:02;13.10;73.00
52799;DHT22;38667;42.872;74.622;2023-04-12T03:53:28;13.20;73.60
52799;DHT22;38667;42.872;74.622;2023-04-12T03:55:54;13.30;72.40
52799;DHT22;38667;42.872;74.622;2023-04-12T03:58:21;13.40;71.20
52799;DHT22;38667;42.872;74.622;2023-04-12T04:00:49;13.60;72.00
52799;DHT22;38667;42.872;74.622;2023-04-12T04:03:15;13.60;71.20
52799;DHT22;38667;42.872;74.622;2023-04-12T04:05:42;13.70;71.80
52799;DHT22;38667;42.872;74.622;2023-04-12T04:08:08;13.90;72.10
52799;DHT22;38667;42.872;74.622;2023-04-12T04:10:35;14.00;71.70
52799;DHT22;38667;42.872;74.622;2023-04-12T04:13:01;14.00;69.70
52799;DHT22;38667;42.872;74.622;2023-04-12T04:15:27;14.10;69.60
52799;DHT22;38667;42.872;74.622;2023-04-12T04:17:56;14.10;69.10
52799;DHT22;38667;42.872;74.622;2023-04-12T04:20:22;14.20;69.00
52799;DHT22;38667;42.872;74.622;2023-04-12T04:22:48;14.30;67.00
52799;DHT22;38667;42.872;74.622;2023-04-12T04:25:15;14.40;66.60
52799;DHT22;38667;42.872;74.622;2023-04-12T04:27:42;14.50;67.30
52799;DHT22;38667;42.872;74.622;2023-04-12T04:30:09;14.60;66.80
52799;DHT22;38667;42.872;74.622;2023-04-12T04:32:35;14.70;61.00
52799;DHT22;38667;42.872;74.622;2023-04-12T04:35:03;14.70;63.90
52799;DHT22;38667;42.872;74.622;2023-04-12T04:37:30;14.80;62.30
52799;DHT22;38667;42.872;74.622;2023-04-12T04:39:57;14.80;60.10
52799;DHT22;38667;42.872;74.622;2023-04-12T04:42:23;14.90;61.80
52799;DHT22;38667;42.872;74.622;2023-04-12T04:44:49;14.90;59.60
52799;DHT22;38667;42.872;74.622;2023-04-12T04:47:16;15.00;60.30
52799;DHT22;38667;42.872;74.622;2023-04-12T04:49:43;15.10;59.70
52799;DHT22;38667;42.872;74.622;2023-04-12T04:52:11;15.20;59.00
52799;DHT22;38667;42.872;74.622;2023-04-12T04:54:37;15.30;59.20
52799;DHT22;38667;42.872;74.622;2023-04-12T04:57:03;15.30;58.10
52799;DHT22;38667;42.872;74.622;2023-04-12T04:59:30;15.30;54.70
52799;DHT22;38667;42.872;74.622;2023-04-12T05:01:56;15.40;55.20
52799;DHT22;38667;42.872;74.622;2023-04-12T05:04:22;15.50;56.60
52799;DHT22;38667;42.872;74.622;2023-04-12T05:06:49;15.60;58.90
52799;DHT22;38667;42.872;74.622;2023-04-12T05:09:17;15.60;58.30
52799;DHT22;38667;42.872;74.622;2023-04-12T05:11:43;15.70;57.50
52799;DHT22;38667;42.872;74.622;2023-04-12T05:14:09;15.80;56.10
52799;DHT22;38667;42.872;74.622;2023-04-12T05:16:36;15.80;55.10
52799;DHT22;38667;42.872;74.622;2023-04-12T05:19:02;15.90;55.00
52799;DHT22;38667;42.872;74.622;2023-04-12T05:21:28;16.00;54.30
52799;DHT22;38667;42.872;74.622;2023-04-12T05:23:55;16.00;53.50
52799;DHT22;38667;42.872;74.622;2023-04-12T05:26:23;16.10;53.00
52799;DHT22;38667;42.872;74.622;2023-04-12T05:28:49;16.10;53.90
52799;DHT22;38667;42.872;74.622;2023-04-12T05:31:15;16.20;54.00
52799;DHT22;38667;42.872;74.622;2023-04-12T05:33:41;16.30;53.50
52799;DHT22;38667;42.872;74.622;2023-04-12T05:36:08;16.30;53.60
52799;DHT22;38667;42.872;74.622;2023-04-12T05:38:35;16.40;52.50
52799;DHT22;38667;42.872;74.622;2023-04-12T05:41:03;16.40;49.70
52799;DHT22;38667;42.872;74.622;2023-04-12T05:43:31;16.50;49.70
52799;DHT22;38667;42.872;74.622;2023-04-12T05:45:58;16.20;51.30
52799;DHT22;38667;42.872;74.622;2023-04-12T05:48:24;16.40;52.30
52799;DHT22;38667;42.872;74.622;2023-04-12T05:50:51;17.00;52.90
52799;DHT22;38667;42.872;74.622;2023-04-12T05:53:18;17.40;47.60
52799;DHT22;38667;42.872;74.622;2023-04-12T05:55:44;17.80;48.70
52799;DHT22;38667;42.872;74.622;2023-04-12T05:58:10;17.80;47.20
52799;DHT22;38667;42.872;74.622;2023-04-12T06:00:39;17.30;48.50
52799;DHT22;38667;42.872;74.622;2023-04-12T06:03:05;16.90;51.20
52799;DHT22;38667;42.872;74.622;2023-04-12T06:05:33;16.70;53.30
52799;DHT22;38667;42.872;74.622;2023-04-12T06:08:01;16.70;51.10
52799;DHT22;38667;42.872;74.622;2023-04-12T06:10:28;16.60;50.80
52799;DHT22;38667;42.872;74.622;2023-04-12T06:12:54;16.60;53.00
52799;DHT22;38667;42.872;74.622;2023-04-12T06:15:20;16.50;51.80
52799;DHT22;38667;42.872;74.622;2023-04-12T06:17:48;16.60;52.00
52799;DHT22;38667;42.872;74.622;2023-04-12T06:20:14;16.90;52.10
52799;DHT22;38667;42.872;74.622;2023-04-12T06:22:41;17.10;50.10
52799;DHT22;38667;42.872;74.622;2023-04-12T06:25:07;17.30;48.80
52799;DHT22;38667;42.872;74.622;2023-04-12T06:27:34;17.40;47.60
52799;DHT22;38667;42.872;74.622;2023-04-12T06:30:00;17.10;47.50
52799;DHT22;38667;42.872;74.622;2023-04-12T06:32:27;16.90;49.90
52799;DHT22;38667;42.872;74.622;2023-04-12T06:34:55;16.70;50.30
52799;DHT22;38667;42.872;74.622;2023-04-12T06:37:21;16.80;50.40
52799;DHT22;38667;42.872;74.622;2023-04-12T06:39:47;16.90;49.90
52799;DHT22;38667;42.872;74.622;2023-04-12T06:42:14;17.30;49.00
52799;DHT22;38667;42.872;74.622;2023-04-12T06:44:41;17.40;46.40
52799;DHT22;38667;42.872;74.622;2023-04-12T06:47:07;17.60;48.20
52799;DHT22;38667;42.872;74.622;2023-04-12T06:49:33;17.70;46.40
52799;DHT22;38667;42.872;74.622;2023-04-12T06:52:01;17.40;46.60
52799;DHT22;38667;42.872;74.622;2023-04-12T06:54:28;17.10;46.50
52799;DHT22;38667;42.872;74.622;2023-04-12T06:56:54;16.80;48.60
52799;DHT22;38667;42.872;74.622;2023-04-12T06:59:20;17.00;47.60
52799;DHT22;38667;42.872;74.622;2023-04-12T07:01:47;17.00;48.30
52799;DHT22;38667;42.872;74.622;2023-04-12T07:04:13;17.30;49.50
52799;DHT22;38667;42.872;74.622;2023-04-12T07:06:39;17.80;48.00
52799;DHT22;38667;42.872;74.622;2023-04-12T07:09:07;18.10;48.70
52799;DHT22;38667;42.872;74.622;2023-04-12T07:11:33;18.40;47.10
52799;DHT22;38667;42.872;74.622;2023-04-12T07:14:00;18.70;47.70
52799;DHT22;38667;42.872;74.622;2023-04-12T07:16:28;19.30;47.50
52799;DHT22;38667;42.872;74.622;2023-04-12T07:18:54;19.80;45.00
52799;DHT22;38667;42.872;74.622;2023-04-12T07:21:20;20.30;46.10
52799;DHT22;38667;42.872;74.622;2023-04-12T07:23:48;20.50;44.40
52799;DHT22;38667;42.872;74.622;2023-04-12T07:26:16;20.60;44.20
52799;DHT22;38667;42.872;74.622;2023-04-12T07:28:42;20.00;43.00
52799;DHT22;38667;42.872;74.622;2023-04-12T07:31:08;19.20;42.60
52799;DHT22;38667;42.872;74.622;2023-04-12T07:33:35;18.70;42.50
52799;DHT22;38667;42.872;74.622;2023-04-12T07:36:01;18.30;45.20
52799;DHT22;38667;42.872;74.622;2023-04-12T07:38:27;18.20;46.80
52799;DHT22;38667;42.872;74.622;2023-04-12T07:40:54;18.50;47.10
52799;DHT22;38667;42.872;74.622;2023-04-12T07:43:22;18.80;44.50
52799;DHT22;38667;42.872;74.622;2023-04-12T07:45:48;18.90;44.60
52799;DHT22;38667;42.872;74.622;2023-04-12T07:48:15;19.00;43.40
52799;DHT22;38667;42.872;74.622;2023-04-12T07:50:41;19.10;45.10
52799;DHT22;38667;42.872;74.622;2023-04-12T07:53:20;19.10;43.40
52799;DHT22;38667;42.872;74.622;2023-04-12T07:55:47;18.90;44.50
52799;DHT22;38667;42.872;74.622;2023-04-12T07:58:14;19.10;41.80
52799;DHT22;38667;42.872;74.622;2023-04-12T08:00:42;19.30;42.60
52799;DHT22;38667;42.872;74.622;2023-04-12T08:03:10;19.60;42.80
52799;DHT22;38667;42.872;74.622;2023-04-12T08:05:37;19.80;42.50
52799;DHT22;38667;42.872;74.622;2023-04-12T08:08:03;20.30;41.10
52799;DHT22;38667;42.872;74.622;2023-04-12T08:10:30;20.70;39.20
52799;DHT22;38667;42.872;74.622;2023-04-12T08:12:56;20.60;41.30
52799;DHT22;38667;42.872;74.622;2023-04-12T08:15:23;20.80;39.70
52799;DHT22;38667;42.872;74.622;2023-04-12T08:17:51;20.70;39.00
52799;DHT22;38667;42.872;74.622;2023-04-12T08:20:17;20.50;39.50
52799;DHT22;38667;42.872;74.622;2023-04-12T08:22:44;20.30;39.40
52799;DHT22;38667;42.872;74.622;2023-04-12T08:25:11;20.30;41.50
52799;DHT22;38667;42.872;74.622;2023-04-12T08:27:40;20.20;40.80
52799;DHT22;38667;42.872;74.622;2023-04-12T08:30:07;20.00;41.10
52799;DHT22;38667;42.872;74.622;2023-04-12T08:32:33;20.80;39.50
52799;DHT22;38667;42.872;74.622;2023-04-12T08:35:01;21.50;38.60
52799;DHT22;38667;42.872;74.622;2023-04-12T08:37:28;22.60;35.90
52799;DHT22;38667;42.872;74.622;2023-04-12T08:39:54;22.90;37.50
52799;DHT22;38667;42.872;74.622;2023-04-12T08:42:20;23.00;38.50
52799;DHT22;38667;42.872;74.622;2023-04-12T08:44:47;22.90;37.10
52799;DHT22;38667;42.872;74.622;2023-04-12T08:47:13;23.00;37.00
52799;DHT22;38667;42.872;74.622;2023-04-12T08:49:41;24.10;33.80
52799;DHT22;38667;42.872;74.622;2023-04-12T08:52:09;25.20;33.60
52799;DHT22;38667;42.872;74.622;2023-04-12T08:54:36;25.50;31.70
52799;DHT22;38667;42.872;74.622;2023-04-12T08:57:05;26.00;31.80
52799;DHT22;38667;42.872;74.622;2023-04-12T08:59:34;25.90;29.40
52799;DHT22;38667;42.872;74.622;2023-04-12T09:02:01;25.60;29.50
52799;DHT22;38667;42.872;74.622;2023-04-12T09:04:28;26.20;31.10
52799;DHT22;38667;42.872;74.622;2023-04-12T09:06:54;25.20;31.30
52799;DHT22;38667;42.872;74.622;2023-04-12T09:09:41;23.40;32.40
52799;DHT22;38667;42.872;74.622;2023-04-12T09:12:08;24.20;32.30
52799;DHT22;38667;42.872;74.622;2023-04-12T09:14:34;25.80;29.10
52799;DHT22;38667;42.872;74.622;2023-04-12T09:17:01;27.20;29.20
52799;DHT22;38667;42.872;74.622;2023-04-12T09:19:31;28.30;27.00
52799;DHT22;38667;42.872;74.622;2023-04-12T09:21:57;29.10;25.80
52799;DHT22;38667;42.872;74.622;2023-04-12T09:24:25;29.30;25.50
52799;DHT22;38667;42.872;74.622;2023-04-12T09:27:01;28.00;26.60
52799;DHT22;38667;42.872;74.622;2023-04-12T09:29:27;25.00;31.50
52799;DHT22;38667;42.872;74.622;2023-04-12T09:31:55;24.60;32.10
52799;DHT22;38667;42.872;74.622;2023-04-12T09:34:21;26.20;30.10
52799;DHT22;38667;42.872;74.622;2023-04-12T09:36:48;26.90;28.50
52799;DHT22;38667;42.872;74.622;2023-04-12T09:39:14;27.60;28.20
52799;DHT22;38667;42.872;74.622;2023-04-12T09:41:40;26.90;28.60
52799;DHT22;38667;42.872;74.622;2023-04-12T09:44:08;26.60;29.30
52799;DHT22;38667;42.872;74.622;2023-04-12T09:46:35;26.50;29.70
52799;DHT22;38667;42.872;74.622;2023-04-12T09:49:01;26.50;29.10
52799;DHT22;38667;42.872;74.622;2023-04-12T09:51:29;25.30;32.00
52799;DHT22;38667;42.872;74.622;2023-04-12T09:53:57;24.30;32.20
52799;DHT22;38667;42.872;74.622;2023-04-12T09:56:27;23.70;32.20
52799;DHT22;38667;42.872;74.622;2023-04-12T09:58:54;23.90;32.60
52799;DHT22;38667;42.872;74.622;2023-04-12T10:01:24;23.10;35.70
52799;DHT22;38667;42.872;74.622;2023-04-12T10:03:50;22.10;37.70
52799;DHT22;38667;42.872;74.622;2023-04-12T10:06:17;21.40;37.70
52799;DHT22;38667;42.872;74.622;2023-04-12T10:08:44;21.00;37.50
52799;DHT22;38667;42.872;74.622;2023-04-12T10:11:10;20.70;37.80
52799;DHT22;38667;42.872;74.622;2023-04-12T10:13:37;20.40;39.10
52799;DHT22;38667;42.872;74.622;2023-04-12T10:16:05;20.40;41.80
52799;DHT22;38667;42.872;74.622;2023-04-12T10:18:35;20.40;38.20
52799;DHT22;38667;42.872;74.622;2023-04-12T10:21:01;20.40;38.40
52799;DHT22;38667;42.872;74.622;2023-04-12T10:23:30;20.50;39.50
52799;DHT22;38667;42.872;74.622;2023-04-12T10:25:56;20.40;37.60
52799;DHT22;38667;42.872;74.622;2023-04-12T10:28:23;20.10;36.80
52799;DHT22;38667;42.872;74.622;2023-04-12T10:30:50;19.90;38.00
52799;DHT22;38667;42.872;74.622;2023-04-12T10:33:17;19.90;41.40
52799;DHT22;38667;42.872;74.622;2023-04-12T10:35:56;19.90;40.20
52799;DHT22;38667;42.872;74.622;2023-04-12T10:38:23;19.70;40.60
52799;DHT22;38667;42.872;74.622;2023-04-12T10:41:14;19.60;39.50
52799;DHT22;38667;42.872;74.622;2023-04-12T10:43:41;19.80;38.40
52799;DHT22;38667;42.872;74.622;2023-04-12T10:46:20;19.80;38.90
52799;DHT22;38667;42.872;74.622;2023-04-12T10:49:07;19.90;38.70
52799;DHT22;38667;42.872;74.622;2023-04-12T10:51:36;19.90;39.20
52799;DHT22;38667;42.872;74.622;2023-04-12T10:54:29;19.80;38.10
52799;DHT22;38667;42.872;74.622;2023-04-12T10:56:56;19.50;39.20
52799;DHT22;38667;42.872;74.622;2023-04-12T10:59:23;19.50;40.20
52799;DHT22;38667;42.872;74.622;2023-04-12T11:02:07;19.50;42.10
52799;DHT22;38667;42.872;74.622;2023-04-12T11:04:34;19.60;38.90
52799;DHT22;38667;42.872;74.622;2023-04-12T11:07:06;19.70;39.20
52799;DHT22;38667;42.872;74.622;2023-04-12T11:09:38;19.50;36.40
52799;DHT22;38667;42.872;74.622;2023-04-12T11:12:11;19.40;38.20
52799;DHT22;38667;42.872;74.622;2023-04-12T11:14:43;19.20;37.90
52799;DHT22;38667;42.872;74.622;2023-04-12T11:17:23;19.30;37.60
52799;DHT22;38667;42.872;74.622;2023-04-12T11:19:57;19.30;38.20
52799;DHT22;38667;42.872;74.622;2023-04-12T11:22:27;19.40;37.70
52799;DHT22;38667;42.872;74.622;2023-04-12T11:24:55;19.30;37.50
52799;DHT22;38667;42.872;74.622;2023-04-12T11:27:23;18.90;38.00
52799;DHT22;38667;42.872;74.622;2023-04-12T11:29:51;18.60;38.70
52799;DHT22;38667;42.872;74.622;2023-04-12T11:32:19;18.40;38.80
52799;DHT22;38667;42.872;74.622;2023-04-12T11:34:46;18.30;39.60
52799;DHT22;38667;42.872;74.622;2023-04-12T11:37:12;18.30;40.10
52799;DHT22;38667;42.872;74.622;2023-04-12T11:39:41;18.20;42.20
52799;DHT22;38667;42.872;74.622;2023-04-12T11:42:12;18.20;40.20
52799;DHT22;38667;42.872;74.622;2023-04-12T11:44:39;18.40;39.70
52799;DHT22;38667;42.872;74.622;2023-04-12T11:47:12;18.50;41.30
52799;DHT22;38667;42.872;74.622;2023-04-12T11:49:42;18.50;42.70
52799;DHT22;38667;42.872;74.622;2023-04-12T11:52:09;18.40;42.10
52799;DHT22;38667;42.872;74.622;2023-04-12T11:54:35;18.30;41.40
52799;DHT22;38667;42.872;74.622;2023-04-12T11:57:03;18.30;43.80
52799;DHT22;38667;42.872;74.622;2023-04-12T11:59:31;18.20;42.20
52799;DHT22;38667;42.872;74.622;2023-04-12T12:01:59;18.20;41.00
52799;DHT22;38667;42.872;74.622;2023-04-12T12:04:26;18.20;42.90
52799;DHT22;38667;42.872;74.622;2023-04-12T12:06:53;18.20;43.50
52799;DHT22;38667;42.872;74.622;2023-04-12T12:09:20;18.10;44.30
52799;DHT22;38667;42.872;74.622;2023-04-12T12:11:47;18.20;45.20
52799;DHT22;38667;42.872;74.622;2023-04-12T12:14:19;18.20;44.60
52799;DHT22;38667;42.872;74.622;2023-04-12T12:16:52;18.30;43.60
52799;DHT22;38667;42.872;74.622;2023-04-12T12:19:26;18.40;42.50
52799;DHT22;38667;42.872;74.622;2023-04-12T12:21:53;18.40;42.00
52799;DHT22;38667;42.872;74.622;2023-04-12T12:24:21;18.50;41.90
52799;DHT22;38667;42.872;74.622;2023-04-12T12:26:49;18.50;42.40
52799;DHT22;38667;42.872;74.622;2023-04-12T12:29:18;18.60;41.30
52799;DHT22;38667;42.872;74.622;2023-04-12T12:31:47;18.60;41.70
52799;DHT22;38667;42.872;74.622;2023-04-12T12:34:14;18.50;40.00
52799;DHT22;38667;42.872;74.622;2023-04-12T12:36:41;18.40;39.50
52799;DHT22;38667;42.872;74.622;2023-04-12T12:39:08;18.30;39.80
52799;DHT22;38667;42.872;74.622;2023-04-12T12:41:34;18.20;41.60
52799;DHT22;38667;42.872;74.622;2023-04-12T12:44:00;18.10;41.60
52799;DHT22;38667;42.872;74.622;2023-04-12T12:46:28;18.00;43.20
52799;DHT22;38667;42.872;74.622;2023-04-12T12:48:55;17.90;43.50
52799;DHT22;38667;42.872;74.622;2023-04-12T12:51:21;17.80;44.70
52799;DHT22;38667;42.872;74.622;2023-04-12T12:53:48;17.80;42.80
52799;DHT22;38667;42.872;74.622;2023-04-12T12:56:14;17.80;43.90
52799;DHT22;38667;42.872;74.622;2023-04-12T12:58:41;17.70;42.80
52799;DHT22;38667;42.872;74.622;2023-04-12T13:01:07;17.60;42.80
52799;DHT22;38667;42.872;74.622;2023-04-12T13:03:35;17.60;44.40
52799;DHT22;38667;42.872;74.622;2023-04-12T13:06:02;17.50;43.80
52799;DHT22;38667;42.872;74.622;2023-04-12T13:08:29;17.40;43.40
52799;DHT22;38667;42.872;74.622;2023-04-12T13:10:55;17.30;44.30
52799;DHT22;38667;42.872;74.622;2023-04-12T13:13:21;17.30;44.10
52799;DHT22;38667;42.872;74.622;2023-04-12T13:15:48;17.20;44.20
52799;DHT22;38667;42.872;74.622;2023-04-12T13:18:14;17.10;43.70
52799;DHT22;38667;42.872;74.622;2023-04-12T13:20:42;17.00;44.80
52799;DHT22;38667;42.872;74.622;2023-04-12T13:23:09;16.90;44.30
52799;DHT22;38667;42.872;74.622;2023-04-12T13:25:35;16.80;44.90
52799;DHT22;38667;42.872;74.622;2023-04-12T13:28:01;16.70;46.10
52799;DHT22;38667;42.872;74.622;2023-04-12T13:30:27;16.60;45.50
52799;DHT22;38667;42.872;74.622;2023-04-12T13:32:54;16.50;46.10
52799;DHT22;38667;42.872;74.622;2023-04-12T13:35:20;16.40;46.20
52799;DHT22;38667;42.872;74.622;2023-04-12T13:37:48;16.30;47.10
52799;DHT22;38667;42.872;74.622;2023-04-12T13:40:14;16.20;46.20
52799;DHT22;38667;42.872;74.622;2023-04-12T13:42:41;16.10;47.70
52799;DHT22;38667;42.872;74.622;2023-04-12T13:45:08;16.00;47.00
52799;DHT22;38667;42.872;74.622;2023-04-12T13:47:34;15.90;47.20
52799;DHT22;38667;42.872;74.622;2023-04-12T13:50:01;15.90;46.90
52799;DHT22;38667;42.872;74.622;2023-04-12T13:52:27;15.80;50.40
52799;DHT22;38667;42.872;74.622;2023-04-12T13:54:55;15.80;49.30
52799;DHT22;38667;42.872;74.622;2023-04-12T13:57:22;15.70;51.80
52799;DHT22;38667;42.872;74.622;2023-04-12T13:59:48;15.60;49.80
52799;DHT22;38667;42.872;74.622;2023-04-12T14:02:14;15.60;48.80
52799;DHT22;38667;42.872;74.622;2023-04-12T14:04:49;15.50;51.00
52799;DHT22;38667;42.872;74.622;2023-04-12T14:07:16;15.40;52.20
52799;DHT22;38667;42.872;74.622;2023-04-12T14:09:42;15.30;52.20
52799;DHT22;38667;42.872;74.622;2023-04-12T14:12:10;15.30;52.10
52799;DHT22;38667;42.872;74.622;2023-04-12T14:14:36;15.20;51.60
52799;DHT22;38667;42.872;74.622;2023-04-12T14:17:02;15.10;53.90
52799;DHT22;38667;42.872;74.622;2023-04-12T14:19:29;15.10;54.10
52799;DHT22;38667;42.872;74.622;2023-04-12T14:21:55;15.00;53.20
52799;DHT22;38667;42.872;74.622;2023-04-12T14:24:22;15.00;52.80
52799;DHT22;38667;42.872;74.622;2023-04-12T14:26:48;15.00;54.70
52799;DHT22;38667;42.872;74.622;2023-04-12T14:29:16;14.90;56.20
52799;DHT22;38667;42.872;74.622;2023-04-12T14:31:42;14.80;56.30
52799;DHT22;38667;42.872;74.622;2023-04-12T14:34:09;14.70;57.90
52799;DHT22;38667;42.872;74.622;2023-04-12T14:36:35;14.60;55.70
52799;DHT22;38667;42.872;74.622;2023-04-12T14:39:02;14.60;55.70
52799;DHT22;38667;42.872;74.622;2023-04-12T14:41:28;14.70;56.50
52799;DHT22;38667;42.872;74.622;2023-04-12T14:43:55;14.60;56.30
52799;DHT22;38667;42.872;74.622;2023-04-12T14:46:23;14.60;58.60
52799;DHT22;38667;42.872;74.622;2023-04-12T14:48:49;14.50;58.00
52799;DHT22;38667;42.872;74.622;2023-04-12T14:51:15;14.40;59.70
52799;DHT22;38667;42.872;74.622;2023-04-12T14:53:41;14.30;59.50
52799;DHT22;38667;42.872;74.622;2023-04-12T14:56:16;14.20;59.50
52799;DHT22;38667;42.872;74.622;2023-04-12T14:58:43;14.20;60.80
52799;DHT22;38667;42.872;74.622;2023-04-12T15:01:10;14.20;60.30
52799;DHT22;38667;42.872;74.622;2023-04-12T15:03:38;14.10;61.30
52799;DHT22;38667;42.872;74.622;2023-04-12T15:06:05;14.10;61.60
52799;DHT22;38667;42.872;74.622;2023-04-12T15:08:33;14.00;61.20
52799;DHT22;38667;42.872;74.622;2023-04-12T15:10:59;13.90;62.20
52799;DHT22;38667;42.872;74.622;2023-04-12T15:13:25;13.90;61.30
52799;DHT22;38667;42.872;74.622;2023-04-12T15:15:52;13.90;62.10
52799;DHT22;38667;42.872;74.622;2023-04-12T15:18:18;13.80;62.60
52799;DHT22;38667;42.872;74.622;2023-04-12T15:20:46;13.70;63.90